Lesage, West Virginia
Current Conditions -  °F | °C
As of 9:51 PM on Sunday 21 Dec 2014 (Local Time) from KHTS Reporting Station
Clear Clear  
Wind Chill: 34°   Ceiling: Unl
Heat Index: 34°   Visibility: 10mi
Dew Point: 26°   Wind: 3mph
Humidity: 73%   Direction: 70°ENE
Pressure: 30.14"   Gusts: NA
Location:  38.51°N, 82.3°W
Report Text: KHTS 220251Z 07003KT 10SM CLR 01/M03 A3014 RMK AO2 SLP213 T00111033 58008
Loading
Personal Weather Stations






























Interactive Weather Map New forecast layout! Learn more

10-Day Weather Forecast

Advertisements
Track Severe Weather on mobile